Parchment, Michigan
Current Conditions -  °F | °C
As of 12:53 AM on Monday 20 Oct 2014 (Local Time) from KAZO Reporting Station
Overcast Overcast  
Wind Chill: 45°   Ceiling: 11000
Heat Index: 49°   Visibility: 10mi
Dew Point: 41°   Wind: 9mph
Humidity: 74%   Direction: 200°SSW
Pressure: 29.94"   Gusts: NA
Location:  42.3411°N, 85.532°W
Report Text: KAZO 200453Z AUTO 20008KT 10SM OVC110 09/05 A2994 RMK AO2 SLP142 T00940050 401221017
Loading
Personal Weather Stations






























Interactive Weather Map
Tropical Storm Tracking
New forecast layout! Learn more

10-Day Weather Forecast

Advertisements
Track Severe Weather on mobile